Аэропорт: Платов. Ростов-на-Дону

ICAO: URRP

METAR:
2021-01-27 04:30:00
URRP 270430Z 11008MPS 9999 FEW005 01/00 Q1011 R05/150060 TEMPO 13012G18MPS 1000 BR BKN002 RMK QBB150 QFE753/1005
METAR:
2021-01-27 01:59:00
TAF URRP 270159Z 2703/2803 11008G13MPS 3100 BR SCT011 BKN020CB TEMPO 2703/2803 13010G16MPS 1200 SHRA BR BKN004 BKN020CB